Time;durP1;ratioP1;P1;durP2;ratioP2;P2;SDS_P1;SDS_P2;PMS_P1;PMS_P2;Temp;Humidity;BMP_temperature;BMP_pressure;BME280_temperature;BME280_humidity;BME280_pressure;Samples;Min_cycle;Max_cycle;Signal;HPM_P1;HPM_P2
2022/07/21 00:00:42;;;;;;;15.25;8.32;;;20.80;99.90;;;;;;5056713;28;20057;-83
2022/07/21 00:03:28;;;;;;;16.48;9.73;;;20.80;99.90;;;;;;5071979;28;20056;-85
2022/07/21 00:06:14;;;;;;;16.70;9.95;;;20.70;99.90;;;;;;5069044;28;20121;-83
2022/07/21 00:09:00;;;;;;;17.10;8.90;;;20.70;99.90;;;;;;5069881;28;20144;-84
2022/07/21 00:11:47;;;;;;;15.55;8.75;;;20.70;99.90;;;;;;5071063;28;20108;-85
2022/07/21 00:14:33;;;;;;;17.10;8.80;;;20.60;99.90;;;;;;5071977;28;20535;-84
2022/07/21 00:17:19;;;;;;;18.88;8.38;;;20.60;99.90;;;;;;5074034;28;20049;-81
2022/07/21 00:20:07;;;;;;;15.00;9.10;;;20.60;99.90;;;;;;5070916;28;20127;-83
2022/07/21 00:22:54;;;;;;;17.23;9.13;;;20.60;99.90;;;;;;5071814;28;20679;-84
2022/07/21 00:25:40;;;;;;;18.90;10.02;;;20.60;99.90;;;;;;5073081;28;20094;-83
2022/07/21 00:28:26;;;;;;;17.17;9.57;;;20.60;99.90;;;;;;5071876;28;20395;-84
2022/07/21 00:31:13;;;;;;;16.98;8.90;;;20.60;99.90;;;;;;5073317;28;20436;-85
2022/07/21 00:33:59;;;;;;;14.70;9.40;;;20.50;99.90;;;;;;5078510;28;20048;-84
2022/07/21 00:36:46;;;;;;;17.58;11.05;;;20.50;99.90;;;;;;5073213;28;20040;-83
2022/07/21 00:39:32;;;;;;;17.77;12.35;;;20.50;99.90;;;;;;5070680;28;20056;-86
2022/07/21 00:42:23;;;;;;;19.58;12.60;;;20.50;99.90;;;;;;5071552;28;20407;-85
2022/07/21 00:45:11;;;;;;;22.30;11.32;;;20.40;99.90;;;;;;5073475;28;20047;-84
2022/07/21 00:47:58;;;;;;;19.42;11.63;;;20.50;99.90;;;;;;5071802;28;20041;-82
2022/07/21 00:50:44;;;;;;;17.67;10.98;;;20.40;99.90;;;;;;5070970;28;20055;-84
2022/07/21 00:53:31;;;;;;;19.88;11.70;;;20.50;99.90;;;;;;5072401;28;20128;-83
2022/07/21 00:56:20;;;;;;;23.58;11.95;;;20.40;99.90;;;;;;5071597;28;20090;-84
2022/07/21 00:59:06;;;;;;;18.50;12.18;;;20.50;99.90;;;;;;5072694;28;20049;-84
2022/07/21 01:01:52;;;;;;;18.77;12.30;;;20.50;99.90;;;;;;5073669;28;20504;-87
2022/07/21 01:04:38;;;;;;;24.05;12.20;;;20.40;99.90;;;;;;5073277;28;20404;-82
2022/07/21 01:07:25;;;;;;;21.70;11.95;;;20.40;99.90;;;;;;5076603;28;20051;-84
2022/07/21 01:10:12;;;;;;;22.70;11.63;;;20.40;99.90;;;;;;5077121;28;20045;-86
2022/07/21 01:12:59;;;;;;;17.75;10.98;;;20.50;99.90;;;;;;5076050;28;20049;-82
2022/07/21 01:15:46;;;;;;;18.80;12.68;;;20.40;99.90;;;;;;5078912;28;20036;-84
2022/07/21 01:18:32;;;;;;;21.58;13.55;;;20.40;99.90;;;;;;5080361;28;20087;-84
2022/07/21 01:21:36;;;;;;;22.15;14.25;;;20.40;99.90;;;;;;5084072;28;20051;-82
2022/07/21 01:24:22;;;;;;;19.73;12.80;;;20.40;99.90;;;;;;5085489;28;20061;-85
2022/07/21 01:27:08;;;;;;;20.88;13.85;;;20.40;99.90;;;;;;5074810;28;20053;-86
2022/07/21 01:29:55;;;;;;;21.92;14.85;;;20.40;99.90;;;;;;5074066;28;20488;-85
2022/07/21 01:32:42;;;;;;;22.83;14.82;;;20.40;99.90;;;;;;5073069;28;20507;-84
2022/07/21 01:35:28;;;;;;;27.45;14.75;;;20.40;99.90;;;;;;5073156;28;20079;-83
2022/07/21 01:41:32;;;;;;;28.38;16.58;;;20.40;99.90;;;;;;5074181;28;20056;-81
2022/07/21 01:44:18;;;;;;;24.92;15.68;;;20.30;99.90;;;;;;5071183;28;20051;-82
2022/07/21 01:47:05;;;;;;;25.45;14.85;;;20.30;99.90;;;;;;5071497;28;20044;-84
2022/07/21 01:49:51;;;;;;;25.33;16.35;;;20.20;99.90;;;;;;5071377;28;20045;-84
2022/07/21 01:52:38;;;;;;;31.25;17.90;;;20.20;99.90;;;;;;5072333;28;20374;-85
2022/07/21 01:55:25;;;;;;;36.20;18.50;;;20.20;99.90;;;;;;5071196;28;20052;-84
2022/07/21 01:58:11;;;;;;;27.73;17.10;;;20.10;99.90;;;;;;5072076;28;20052;-86
2022/07/21 02:00:58;;;;;;;26.60;16.88;;;20.10;99.90;;;;;;5072484;28;20055;-86
2022/07/21 02:03:45;;;;;;;32.22;18.88;;;20.10;99.90;;;;;;5071845;28;20040;-86
2022/07/21 02:06:32;;;;;;;27.90;18.80;;;20.10;99.90;;;;;;5073099;28;20052;-87
2022/07/21 02:09:22;;;;;;;26.50;16.50;;;20.10;99.90;;;;;;5073535;28;20105;-85
2022/07/21 02:12:11;;;;;;;30.63;19.75;;;20.00;99.90;;;;;;5058290;28;20476;-84
2022/07/21 02:14:57;;;;;;;28.00;19.23;;;20.00;99.90;;;;;;5070575;28;20051;-84
2022/07/21 02:17:43;;;;;;;32.40;19.67;;;20.00;99.90;;;;;;5071292;28;20060;-85
2022/07/21 02:20:29;;;;;;;26.48;19.15;;;20.00;99.90;;;;;;5071029;28;20080;-84
2022/07/21 02:23:17;;;;;;;32.72;21.50;;;20.00;99.90;;;;;;5057391;28;20481;-86
2022/07/21 02:26:04;;;;;;;26.10;18.33;;;20.00;99.90;;;;;;5070226;28;20147;-85
2022/07/21 02:28:50;;;;;;;32.10;19.40;;;20.00;99.90;;;;;;5073398;28;20094;-84
2022/07/21 02:31:36;;;;;;;29.75;18.90;;;20.00;99.90;;;;;;5072045;28;20114;-85
2022/07/21 02:34:23;;;;;;;30.35;19.77;;;20.00;99.90;;;;;;5070132;28;20138;-87
2022/07/21 02:37:09;;;;;;;30.95;20.25;;;19.90;99.90;;;;;;5073543;28;20064;-85
2022/07/21 02:39:55;;;;;;;35.78;22.40;;;20.00;99.90;;;;;;5059490;28;20052;-87
2022/07/21 02:42:42;;;;;;;34.78;21.80;;;19.90;99.90;;;;;;5056937;28;20052;-88
2022/07/21 02:45:28;;;;;;;27.02;17.90;;;19.90;99.90;;;;;;5071826;28;20068;-87
2022/07/21 02:48:14;;;;;;;32.38;20.40;;;19.80;99.90;;;;;;5071354;28;20093;-87
2022/07/21 02:51:00;;;;;;;32.70;20.85;;;19.80;99.90;;;;;;5071633;28;20083;-85
2022/07/21 02:53:46;;;;;;;37.45;21.90;;;19.80;99.90;;;;;;5070456;28;20593;-85
2022/07/21 02:56:33;;;;;;;34.78;21.08;;;19.70;99.90;;;;;;5071160;28;20052;-86
2022/07/21 02:59:19;;;;;;;35.67;21.95;;;19.60;99.90;;;;;;5071124;28;20045;-85
2022/07/21 03:02:06;;;;;;;31.17;22.23;;;19.60;99.90;;;;;;5056418;28;20044;-85
2022/07/21 03:04:52;;;;;;;32.58;21.27;;;19.60;99.90;;;;;;5071356;28;20072;-85
2022/07/21 03:07:38;;;;;;;32.47;21.02;;;19.60;99.90;;;;;;5076065;28;20048;-84
2022/07/21 03:10:25;;;;;;;35.25;23.35;;;19.60;99.90;;;;;;5074956;28;20618;-83
2022/07/21 03:13:12;;;;;;;38.97;24.52;;;19.60;99.90;;;;;;5075414;28;20044;-88
2022/07/21 03:15:58;;;;;;;31.17;19.40;;;19.50;99.90;;;;;;5073916;28;20051;-85
2022/07/21 03:18:44;;;;;;;34.88;22.77;;;19.50;99.90;;;;;;5059036;28;20113;-88
2022/07/21 03:21:31;;;;;;;36.67;22.38;;;19.60;99.90;;;;;;5077501;28;20041;-87
2022/07/21 03:24:17;;;;;;;36.80;23.85;;;19.50;99.90;;;;;;5079297;28;20127;-87
2022/07/21 03:27:03;;;;;;;32.15;22.30;;;19.60;99.90;;;;;;5079688;28;20060;-86
2022/07/21 03:29:50;;;;;;;28.77;19.58;;;19.60;99.90;;;;;;5062597;28;20139;-90
2022/07/21 03:32:36;;;;;;;29.77;20.30;;;19.60;99.90;;;;;;5079798;28;20044;-89
2022/07/21 03:35:23;;;;;;;31.70;22.23;;;19.60;99.90;;;;;;5064064;28;20048;-90
2022/07/21 03:38:09;;;;;;;32.03;21.08;;;19.60;99.90;;;;;;5076786;28;20056;-88
2022/07/21 03:40:56;;;;;;;32.28;21.63;;;19.60;99.90;;;;;;5065577;28;20048;-92
2022/07/21 03:43:42;;;;;;;34.05;23.40;;;19.60;99.90;;;;;;5080974;28;20052;-91
2022/07/21 03:46:28;;;;;;;28.33;20.33;;;19.60;99.90;;;;;;5083158;28;20106;-89
2022/07/21 03:49:14;;;;;;;31.25;21.33;;;19.60;99.90;;;;;;5080198;28;20056;-88
2022/07/21 03:52:00;;;;;;;34.38;24.40;;;19.70;99.90;;;;;;5079379;28;20061;-89
2022/07/21 03:54:49;;;;;;;33.75;23.55;;;19.60;99.90;;;;;;5083253;28;20048;-90
2022/07/21 03:57:41;;;;;;;33.53;22.92;;;19.70;99.90;;;;;;5085987;28;20048;-90
2022/07/21 04:00:43;;;;;;;38.30;25.10;;;19.60;99.90;;;;;;5080602;28;20131;-88
2022/07/21 04:03:31;;;;;;;36.08;21.80;;;19.70;99.90;;;;;;5065105;28;20498;-88
2022/07/21 04:06:17;;;;;;;29.75;21.65;;;19.70;99.90;;;;;;5076924;28;20120;-88
2022/07/21 04:09:04;;;;;;;37.28;22.42;;;19.70;99.90;;;;;;5063991;28;20288;-88
2022/07/21 04:11:50;;;;;;;31.63;23.65;;;19.70;99.90;;;;;;5077219;28;20064;-89
2022/07/21 04:14:36;;;;;;;36.13;23.08;;;19.70;99.90;;;;;;5085204;28;20454;-91
2022/07/21 04:17:25;;;;;;;38.90;26.10;;;19.70;99.90;;;;;;5080851;28;20076;-90
2022/07/21 04:20:13;;;;;;;36.60;27.30;;;19.60;99.90;;;;;;5079337;28;20053;-89
2022/07/21 04:23:00;;;;;;;33.88;24.23;;;19.60;99.90;;;;;;5062338;28;20060;-89
2022/07/21 04:25:46;;;;;;;39.90;25.65;;;19.60;99.90;;;;;;5088075;28;20070;-89
2022/07/21 04:28:32;;;;;;;35.70;23.77;;;19.60;99.90;;;;;;5057200;28;20105;-88
2022/07/21 04:31:18;;;;;;;40.88;26.13;;;19.60;99.90;;;;;;5075261;28;20098;-88
2022/07/21 04:34:05;;;;;;;40.97;27.35;;;19.60;99.90;;;;;;5062842;28;20052;-88
2022/07/21 04:36:51;;;;;;;36.42;26.50;;;19.60;99.90;;;;;;5077197;28;20114;-88
2022/07/21 04:39:40;;;;;;;36.88;24.88;;;19.60;99.90;;;;;;5065807;28;20059;-90
2022/07/21 04:42:26;;;;;;;44.60;28.08;;;19.60;99.90;;;;;;5078007;28;20116;-90
2022/07/21 04:45:14;;;;;;;39.45;26.17;;;19.60;99.90;;;;;;5079175;28;20052;-89
2022/07/21 04:48:00;;;;;;;39.92;25.90;;;19.60;99.90;;;;;;5079217;28;20048;-90
2022/07/21 04:50:47;;;;;;;34.35;24.42;;;19.60;99.90;;;;;;5062960;28;20131;-89
2022/07/21 04:53:33;;;;;;;36.63;23.73;;;19.50;99.90;;;;;;5076989;28;20052;-90
2022/07/21 04:56:19;;;;;;;33.60;24.42;;;19.50;99.90;;;;;;5072764;28;20052;-90
2022/07/21 04:59:05;;;;;;;32.30;22.23;;;19.60;99.90;;;;;;5072094;28;20072;-89
2022/07/21 05:01:52;;;;;;;38.60;24.90;;;19.60;99.90;;;;;;5077268;28;20063;-89
2022/07/21 05:04:38;;;;;;;32.00;21.60;;;19.60;99.90;;;;;;5072708;28;20052;-90
2022/07/21 05:07:24;;;;;;;40.55;26.92;;;19.60;99.90;;;;;;5072348;28;20059;-89
2022/07/21 05:10:15;;;;;;;33.58;25.63;;;19.60;99.90;;;;;;5058522;28;20048;-90
2022/07/21 05:13:01;;;;;;;35.88;24.80;;;19.60;99.90;;;;;;5060144;28;20055;-89
2022/07/21 05:15:47;;;;;;;35.67;23.80;;;19.60;99.90;;;;;;5073421;28;20045;-87
2022/07/21 05:18:33;;;;;;;36.08;24.40;;;19.60;99.90;;;;;;5072732;28;20533;-87
2022/07/21 05:21:20;;;;;;;40.03;26.17;;;19.60;99.90;;;;;;5058156;28;20403;-89
2022/07/21 05:24:06;;;;;;;37.97;26.45;;;19.60;99.90;;;;;;5072137;28;20052;-88
2022/07/21 05:26:52;;;;;;;39.97;28.52;;;19.60;99.90;;;;;;5071837;28;20088;-89
2022/07/21 05:29:38;;;;;;;39.38;26.77;;;19.60;99.90;;;;;;5058610;28;20052;-89
2022/07/21 05:32:27;;;;;;;36.38;24.05;;;19.60;99.90;;;;;;5072657;28;20045;-89
2022/07/21 05:35:14;;;;;;;38.10;26.98;;;19.60;99.90;;;;;;5074812;28;20052;-88
2022/07/21 05:38:01;;;;;;;40.05;25.90;;;19.60;99.90;;;;;;5073393;28;20071;-88
2022/07/21 05:40:48;;;;;;;33.20;24.83;;;19.60;99.90;;;;;;5075074;28;20514;-89
2022/07/21 05:43:40;;;;;;;39.83;28.40;;;19.60;99.90;;;;;;5060204;28;20124;-89
2022/07/21 05:46:27;;;;;;;37.63;26.25;;;19.70;99.90;;;;;;5072071;28;20052;-88
2022/07/21 05:49:14;;;;;;;39.75;27.05;;;19.70;99.90;;;;;;5063191;28;20136;-86
2022/07/21 05:52:00;;;;;;;35.45;26.25;;;19.70;99.90;;;;;;5074064;28;20048;-89
2022/07/21 05:54:46;;;;;;;37.78;25.85;;;19.80;99.90;;;;;;5074090;28;20190;-90
2022/07/21 05:57:33;;;;;;;35.05;25.30;;;19.70;99.90;;;;;;5072478;28;20067;-89
2022/07/21 06:00:19;;;;;;;34.70;24.88;;;19.80;99.90;;;;;;5059546;28;20048;-90
2022/07/21 06:03:06;;;;;;;35.72;24.02;;;19.80;99.90;;;;;;5071490;28;20048;-88
2022/07/21 06:05:52;;;;;;;31.35;23.45;;;19.90;99.90;;;;;;5072676;28;20063;-86
2022/07/21 06:08:41;;;;;;;31.00;24.50;;;19.90;99.90;;;;;;5071269;28;20118;-88
2022/07/21 06:11:27;;;;;;;30.75;22.35;;;19.90;99.90;;;;;;5074854;28;20083;-88
2022/07/21 06:14:13;;;;;;;33.28;24.70;;;20.00;99.90;;;;;;5074888;28;20127;-89
2022/07/21 06:16:59;;;;;;;27.98;21.70;;;19.90;99.90;;;;;;5073462;28;20055;-89
2022/07/21 06:19:46;;;;;;;29.35;22.65;;;20.00;99.90;;;;;;5071338;28;20087;-89
2022/07/21 06:22:32;;;;;;;30.42;23.02;;;20.00;99.90;;;;;;5057697;28;20067;-88
2022/07/21 06:25:20;;;;;;;32.38;25.17;;;19.90;99.90;;;;;;5071323;28;20121;-88
2022/07/21 06:28:06;;;;;;;31.33;23.90;;;19.90;99.90;;;;;;5058214;28;20052;-87
2022/07/21 06:30:53;;;;;;;31.65;24.42;;;19.90;99.90;;;;;;5070256;28;20060;-88
2022/07/21 06:33:45;;;;;;;30.45;23.23;;;19.90;99.90;;;;;;5072084;28;20045;-87
2022/07/21 06:36:31;;;;;;;29.65;22.33;;;19.90;99.90;;;;;;5058096;28;20048;-88
2022/07/21 06:39:18;;;;;;;27.90;22.00;;;19.80;99.90;;;;;;5070569;28;20191;-87
2022/07/21 06:42:05;;;;;;;29.33;22.45;;;19.90;99.90;;;;;;5071172;28;20052;-88
2022/07/21 06:44:51;;;;;;;27.85;21.85;;;20.00;99.90;;;;;;5072203;28;20083;-88
2022/07/21 06:47:38;;;;;;;25.73;20.35;;;20.10;99.90;;;;;;5069681;28;20147;-89
2022/07/21 06:50:24;;;;;;;27.98;20.88;;;20.20;99.90;;;;;;5069824;28;20508;-89
2022/07/21 06:53:10;;;;;;;26.95;20.92;;;20.30;99.90;;;;;;5071130;28;20049;-89
2022/07/21 06:55:57;;;;;;;27.25;20.48;;;20.40;99.90;;;;;;5070590;28;20060;-90
2022/07/21 06:58:47;;;;;;;27.55;20.75;;;20.50;99.90;;;;;;5069755;28;20052;-89
2022/07/21 07:01:35;;;;;;;27.00;20.48;;;20.60;99.90;;;;;;5069474;28;20583;-89
2022/07/21 07:04:22;;;;;;;26.77;19.77;;;20.50;99.90;;;;;;5060444;28;20059;-87
2022/07/21 07:07:08;;;;;;;26.92;20.77;;;20.40;99.90;;;;;;5060265;28;20145;-88
2022/07/21 07:09:59;;;;;;;25.75;19.58;;;20.30;99.90;;;;;;5073795;28;20400;-88
2022/07/21 07:12:45;;;;;;;27.00;19.10;;;20.30;99.90;;;;;;5059200;28;20101;-88
2022/07/21 07:15:31;;;;;;;25.58;19.63;;;20.30;99.90;;;;;;5078143;28;20044;-87
2022/07/21 07:18:21;;;;;;;27.60;20.75;;;20.20;99.90;;;;;;5075038;28;20487;-88
2022/07/21 07:21:08;;;;;;;25.73;19.20;;;20.20;99.90;;;;;;5062169;28;20151;-88
2022/07/21 07:23:54;;;;;;;22.95;17.88;;;20.20;99.90;;;;;;5076053;28;20092;-88
2022/07/21 07:26:40;;;;;;;28.27;19.80;;;20.30;99.90;;;;;;5075935;28;20056;-88
2022/07/21 07:29:28;;;;;;;23.95;19.13;;;20.30;99.90;;;;;;5079884;28;20058;-86
2022/07/21 07:32:14;;;;;;;25.23;18.77;;;20.30;99.90;;;;;;5062837;28;20101;-87
2022/07/21 07:35:01;;;;;;;25.45;17.67;;;20.30;99.90;;;;;;5060096;28;20052;-87
2022/07/21 07:37:47;;;;;;;27.35;18.77;;;20.20;99.90;;;;;;5073536;28;20118;-87
2022/07/21 07:40:36;;;;;;;24.55;17.92;;;20.20;99.90;;;;;;5055778;28;20048;-87
2022/07/21 07:43:24;;;;;;;21.52;15.48;;;20.30;99.90;;;;;;5056552;28;20048;-87
2022/07/21 07:46:12;;;;;;;23.45;18.77;;;20.30;99.90;;;;;;5056572;28;20044;-88
2022/07/21 07:48:59;;;;;;;22.38;17.00;;;20.50;99.90;;;;;;5057608;28;20238;-88
2022/07/21 07:51:45;;;;;;;21.73;18.55;;;20.60;99.90;;;;;;5071377;28;20127;-89
2022/07/21 07:54:31;;;;;;;23.38;18.75;;;20.80;99.90;;;;;;5071932;28;20408;-87
2022/07/21 07:57:18;;;;;;;24.52;18.80;;;21.00;99.90;;;;;;5055144;28;20057;-87
2022/07/21 08:00:11;;;;;;;25.02;19.13;;;21.20;99.90;;;;;;5041699;28;20052;-86
2022/07/21 08:02:57;;;;;;;22.55;17.77;;;21.40;99.90;;;;;;5069768;28;20145;-87
2022/07/21 08:05:43;;;;;;;23.63;17.05;;;21.40;99.90;;;;;;5041685;28;20056;-87
2022/07/21 08:08:31;;;;;;;21.83;16.98;;;21.50;99.90;;;;;;5056300;28;20055;-87
2022/07/21 08:11:17;;;;;;;21.30;16.92;;;21.50;99.90;;;;;;5074741;28;20089;-88
2022/07/21 08:14:03;;;;;;;22.52;16.50;;;21.50;99.90;;;;;;5073365;28;20512;-88
2022/07/21 08:16:50;;;;;;;22.13;14.68;;;21.40;99.90;;;;;;5076349;28;20069;-87
2022/07/21 08:19:36;;;;;;;20.90;15.95;;;21.30;99.90;;;;;;5074380;28;20484;-87
2022/07/21 08:22:23;;;;;;;19.23;15.43;;;21.20;99.90;;;;;;5074557;28;20646;-88
2022/07/21 08:25:09;;;;;;;23.08;18.95;;;21.10;99.90;;;;;;5074154;28;20588;-87
2022/07/21 08:27:55;;;;;;;23.67;19.90;;;21.00;99.90;;;;;;5074230;28;20147;-88
2022/07/21 08:30:42;;;;;;;26.33;21.05;;;20.80;99.90;;;;;;5075139;28;20056;-86
2022/07/21 08:33:28;;;;;;;26.17;20.42;;;20.70;99.90;;;;;;5074847;28;20451;-88
2022/07/21 08:36:14;;;;;;;29.45;21.65;;;20.60;99.90;;;;;;5074449;28;20099;-86
2022/07/21 08:39:01;;;;;;;27.25;20.75;;;20.50;99.90;;;;;;5074689;28;20055;-87
2022/07/21 08:41:50;;;;;;;27.10;21.60;;;20.50;99.90;;;;;;5061293;28;20083;-87
2022/07/21 08:44:37;;;;;;;30.70;21.55;;;20.50;99.90;;;;;;5064133;28;20044;-87
2022/07/21 08:47:25;;;;;;;29.40;22.38;;;20.50;99.90;;;;;;5066313;28;20052;-88
2022/07/21 08:50:11;;;;;;;27.55;21.55;;;20.50;99.90;;;;;;5083653;28;20033;-86
2022/07/21 08:53:04;;;;;;;26.05;21.50;;;20.60;99.90;;;;;;5069255;28;20127;-88
2022/07/21 08:55:50;;;;;;;25.08;20.50;;;20.70;99.90;;;;;;5082837;28;20052;-88
2022/07/21 08:58:37;;;;;;;24.58;20.48;;;20.70;99.90;;;;;;5081755;28;20040;-87
2022/07/21 09:01:26;;;;;;;27.05;21.08;;;20.70;99.90;;;;;;5079605;28;20094;-88
2022/07/21 09:04:27;;;;;;;27.23;20.40;;;20.80;99.90;;;;;;5080215;28;20045;-87
2022/07/21 09:07:14;;;;;;;27.52;20.92;;;20.90;99.90;;;;;;5075603;28;20055;-87
2022/07/21 09:10:03;;;;;;;25.90;20.30;;;21.00;99.90;;;;;;5075641;28;20131;-86
2022/07/21 09:12:52;;;;;;;27.35;21.00;;;21.10;99.90;;;;;;5048603;28;20044;-87
2022/07/21 09:15:39;;;;;;;25.92;21.50;;;21.10;99.90;;;;;;5079992;28;20135;-88
2022/07/21 09:18:25;;;;;;;25.63;20.88;;;21.10;99.90;;;;;;5079344;28;20127;-88
2022/07/21 09:21:11;;;;;;;28.17;21.30;;;21.00;99.90;;;;;;5078841;28;20079;-87
2022/07/21 09:24:21;;;;;;;26.50;21.48;;;21.20;99.90;;;;;;5078044;28;20060;-87
2022/07/21 09:27:13;;;;;;;27.45;21.48;;;21.20;99.90;;;;;;5075456;28;20076;-86
2022/07/21 09:30:02;;;;;;;28.55;22.75;;;21.20;99.90;;;;;;5071907;28;20078;-88
2022/07/21 09:32:48;;;;;;;29.75;23.52;;;21.30;99.90;;;;;;5073268;28;20131;-88
2022/07/21 09:35:36;;;;;;;28.48;22.80;;;21.40;99.90;;;;;;5073037;28;20145;-88
2022/07/21 09:38:24;;;;;;;31.67;24.40;;;21.40;99.90;;;;;;5073454;28;20056;-87
2022/07/21 09:41:14;;;;;;;27.60;22.20;;;21.50;99.90;;;;;;5072555;28;20048;-87
2022/07/21 09:44:03;;;;;;;29.25;23.55;;;21.50;99.90;;;;;;5071095;28;20044;-88
2022/07/21 09:47:11;;;;;;;29.35;22.63;;;21.70;99.90;;;;;;5057474;28;20048;-87
2022/07/21 09:54:06;;;;;;;31.67;24.83;;;21.90;99.90;;;;;;5075263;28;20043;-88
2022/07/21 09:56:54;;;;;;;28.58;23.48;;;21.90;99.90;;;;;;5075930;28;20099;-87
2022/07/21 09:59:44;;;;;;;29.17;22.90;;;22.00;99.90;;;;;;5078075;28;20475;-88
2022/07/21 10:02:32;;;;;;;33.78;26.20;;;21.90;99.90;;;;;;5073067;28;20095;-86
2022/07/21 10:05:20;;;;;;;27.98;24.25;;;22.10;99.90;;;;;;5072988;28;20055;-86
2022/07/21 10:08:07;;;;;;;31.38;24.13;;;22.20;99.90;;;;;;5074335;28;20122;-86
2022/07/21 10:10:53;;;;;;;34.55;26.70;;;22.20;99.90;;;;;;5072011;28;20059;-87
2022/07/21 10:13:40;;;;;;;32.15;25.55;;;22.20;99.90;;;;;;5071131;28;20048;-85
2022/07/21 10:16:27;;;;;;;34.75;27.35;;;22.10;99.90;;;;;;5072914;28;20578;-86
2022/07/21 10:19:27;;;;;;;30.23;24.40;;;22.00;99.90;;;;;;5072076;28;20458;-88
2022/07/21 10:22:23;;;;;;;33.95;26.08;;;22.00;99.90;;;;;;5070803;28;20368;-86
2022/07/21 10:25:10;;;;;;;34.83;26.35;;;22.00;99.90;;;;;;5071206;28;20080;-85
2022/07/21 10:28:12;;;;;;;32.97;26.10;;;22.00;99.90;;;;;;5071438;28;20040;-86
2022/07/21 10:30:59;;;;;;;33.25;25.98;;;22.00;99.90;;;;;;5056357;28;20465;-86
2022/07/21 10:33:45;;;;;;;35.05;26.45;;;22.00;99.90;;;;;;5072060;28;20514;-85
2022/07/21 10:36:33;;;;;;;32.17;25.83;;;22.00;99.90;;;;;;5071795;28;20045;-87
2022/07/21 10:39:20;;;;;;;31.63;24.00;;;22.00;99.90;;;;;;5070846;28;20500;-85
2022/07/21 10:42:16;;;;;;;30.08;26.13;;;22.00;99.90;;;;;;5074572;28;20055;-86
2022/07/21 10:45:31;;;;;;;29.60;24.20;;;21.90;99.90;;;;;;5058603;28;20052;-87
2022/07/21 10:48:36;;;;;;;23.40;18.77;;;21.80;99.90;;;;;;5059977;28;20044;-86
2022/07/21 10:51:25;;;;;;;17.33;15.10;;;21.70;99.90;;;;;;5075999;28;20072;-87
2022/07/21 10:54:22;;;;;;;17.65;14.02;;;21.60;99.90;;;;;;5059788;28;20198;-86
2022/07/21 10:57:28;;;;;;;15.88;12.60;;;21.50;99.90;;;;;;5075007;28;20048;-87
2022/07/21 11:00:21;;;;;;;17.98;12.00;;;21.40;99.90;;;;;;5071929;28;20056;-88
2022/07/21 11:03:20;;;;;;;16.13;11.10;;;21.30;99.90;;;;;;5073820;28;20048;-86
2022/07/21 11:06:09;;;;;;;14.90;10.45;;;21.20;99.90;;;;;;5071742;28;20052;-87
2022/07/21 11:09:09;;;;;;;14.10;9.48;;;21.10;99.90;;;;;;5057744;28;20063;-86
2022/07/21 11:12:03;;;;;;;14.18;7.10;;;21.20;99.90;;;;;;5072127;28;20047;-87
2022/07/21 11:14:51;;;;;;;9.88;6.43;;;21.20;99.90;;;;;;5072492;28;20060;-86
2022/07/21 11:17:39;;;;;;;13.02;7.10;;;21.10;99.90;;;;;;5069804;28;20139;-86
2022/07/21 11:20:25;;;;;;;12.55;6.70;;;21.10;99.90;;;;;;5071050;28;20698;-87
2022/07/21 11:23:11;;;;;;;12.68;6.88;;;20.90;99.90;;;;;;5055752;28;20052;-87
2022/07/21 11:25:58;;;;;;;13.80;6.70;;;20.80;99.90;;;;;;5069313;28;20515;-87
2022/07/21 11:28:45;;;;;;;12.48;7.10;;;20.70;99.90;;;;;;5069441;28;20060;-86
2022/07/21 11:31:44;;;;;;;12.77;7.15;;;20.60;99.90;;;;;;5056723;28;20052;-85
2022/07/21 11:35:00;;;;;;;13.00;6.28;;;20.60;99.90;;;;;;5076752;28;20044;-86
2022/07/21 11:37:47;;;;;;;13.98;6.80;;;20.40;99.90;;;;;;5073052;28;20127;-82
2022/07/21 11:40:33;;;;;;;11.00;6.75;;;20.30;99.90;;;;;;5070257;28;20048;-82
2022/07/21 11:43:19;;;;;;;12.15;6.50;;;20.30;99.90;;;;;;5069798;28;20396;-84
2022/07/21 11:46:09;;;;;;;10.85;5.55;;;20.20;99.90;;;;;;5070582;28;20098;-86
2022/07/21 11:49:05;;;;;;;7.85;5.82;;;20.10;99.90;;;;;;5069988;28;20049;-85
2022/07/21 11:51:55;;;;;;;9.60;6.15;;;20.20;99.90;;;;;;5069217;28;20076;-86
2022/07/21 11:54:47;;;;;;;9.65;5.85;;;20.10;99.90;;;;;;5069282;28;20060;-86
2022/07/21 11:57:34;;;;;;;9.45;5.82;;;20.10;99.90;;;;;;5068476;28;20059;-87
2022/07/21 12:00:20;;;;;;;9.60;5.32;;;20.20;99.90;;;;;;5068931;28;20082;-87
2022/07/21 12:03:07;;;;;;;9.55;6.20;;;20.20;99.90;;;;;;5068707;28;20412;-87
2022/07/21 12:06:03;;;;;;;8.40;5.45;;;20.30;99.90;;;;;;5055684;28;20507;-87
2022/07/21 12:08:55;;;;;;;8.68;5.10;;;20.40;99.90;;;;;;5072108;28;20048;-86
2022/07/21 12:11:41;;;;;;;7.03;4.88;;;20.60;99.90;;;;;;5070229;28;20045;-87
2022/07/21 12:14:49;;;;;;;9.45;5.30;;;20.70;99.90;;;;;;5069802;28;20048;-87
2022/07/21 12:17:47;;;;;;;7.43;4.82;;;20.90;99.90;;;;;;5069703;28;20060;-88
2022/07/21 12:20:36;;;;;;;8.85;4.50;;;20.90;99.90;;;;;;5057785;28;20122;-88
2022/07/21 12:23:29;;;;;;;8.85;5.03;;;21.00;99.90;;;;;;5070291;28;20053;-88
2022/07/21 12:26:22;;;;;;;9.40;4.82;;;21.10;99.90;;;;;;5071282;28;20045;-90
2022/07/21 12:29:08;;;;;;;7.82;4.97;;;21.20;99.90;;;;;;5069962;28;20095;-88
2022/07/21 12:32:05;;;;;;;;;;;;;;;;;;;;;
2022/07/21 12:34:54;;;;;;;8.05;4.20;;;21.50;99.90;;;;;;5074816;28;20037;-88
2022/07/21 12:37:59;;;;;;;8.80;4.07;;;21.60;99.90;;;;;;5077345;28;20365;-89
2022/07/21 12:40:50;;;;;;;8.20;4.32;;;21.80;99.90;;;;;;5060514;28;20539;-90
2022/07/21 12:43:37;;;;;;;5.65;4.07;;;21.80;99.90;;;;;;5075887;28;20052;-88
2022/07/21 12:46:32;;;;;;;6.28;4.20;;;21.80;99.90;;;;;;5078256;28;20051;-88
2022/07/21 12:49:18;;;;;;;7.07;4.13;;;21.80;99.90;;;;;;5076107;28;20056;-89
2022/07/21 12:52:05;;;;;;;5.32;4.00;;;21.80;99.90;;;;;;5071408;28;20411;-91
2022/07/21 12:54:52;;;;;;;7.90;4.28;;;21.90;99.90;;;;;;5074759;28;20048;-90
2022/07/21 12:57:43;;;;;;;7.15;3.80;;;21.90;99.90;;;;;;5074504;28;20355;-89
2022/07/21 13:00:46;;;;;;;6.05;3.90;;;21.80;99.90;;;;;;5074574;28;20139;-90
2022/07/21 13:03:34;;;;;;;5.50;3.33;;;21.90;99.90;;;;;;5072195;28;20105;-88
2022/07/21 13:06:26;;;;;;;6.20;4.20;;;22.00;99.90;;;;;;5077242;28;20036;-86
2022/07/21 13:09:14;;;;;;;7.35;4.80;;;22.10;99.90;;;;;;5078232;28;20053;-89
2022/07/21 13:12:04;;;;;;;8.63;3.90;;;22.10;99.90;;;;;;5077006;28;20057;-87
2022/07/21 13:14:50;;;;;;;6.63;3.95;;;22.10;99.90;;;;;;5079483;28;20125;-88
2022/07/21 13:17:36;;;;;;;11.57;4.60;;;22.00;99.90;;;;;;5076936;28;20434;-89
2022/07/21 13:20:23;;;;;;;6.70;3.60;;;22.00;99.90;;;;;;5074992;28;20049;-90
2022/07/21 13:23:12;;;;;;;7.57;3.95;;;22.00;99.90;;;;;;5061635;28;20056;-87
2022/07/21 13:25:58;;;;;;;8.02;4.07;;;22.00;99.90;;;;;;5082077;28;20056;-88
2022/07/21 13:28:44;;;;;;;6.43;3.30;;;22.00;99.90;;;;;;5078554;28;20056;-89
2022/07/21 13:31:36;;;;;;;8.05;3.58;;;22.00;99.90;;;;;;5075635;28;20055;-87
2022/07/21 13:34:22;;;;;;;7.88;3.25;;;22.00;99.90;;;;;;5075192;28;20400;-87
2022/07/21 13:37:13;;;;;;;6.15;3.25;;;21.90;99.90;;;;;;5078534;28;20053;-88
2022/07/21 13:40:05;;;;;;;6.35;3.72;;;21.80;99.90;;;;;;5077711;28;20049;-91
2022/07/21 13:42:53;;;;;;;6.60;3.45;;;22.00;99.90;;;;;;5077601;28;20052;-89
2022/07/21 13:45:50;;;;;;;;;;;;;;;;;;;;;
2022/07/21 13:48:37;;;;;;;6.57;3.63;;;22.10;99.90;;;;;;5095964;28;20055;-88
2022/07/21 13:51:23;;;;;;;6.32;3.20;;;22.10;99.90;;;;;;5078388;28;20511;-88
2022/07/21 13:54:22;;;;;;;6.38;3.63;;;22.10;99.90;;;;;;5078294;28;20063;-88
2022/07/21 13:57:14;;;;;;;8.55;4.13;;;22.20;99.90;;;;;;5080361;28;20048;-88
2022/07/21 14:00:11;;;;;;;10.27;4.10;;;22.20;99.90;;;;;;5080419;28;20131;-89
2022/07/21 14:02:57;;;;;;;7.20;3.72;;;22.10;99.90;;;;;;5077857;28;20076;-90
2022/07/21 14:05:44;;;;;;;8.15;3.53;;;21.90;99.90;;;;;;5077552;28;20498;-91
2022/07/21 14:08:30;;;;;;;6.38;3.20;;;21.80;99.90;;;;;;5077868;28;20044;-91
2022/07/21 14:11:22;;;;;;;7.82;3.60;;;21.70;99.90;;;;;;5081951;28;20472;-89
2022/07/21 14:14:17;;;;;;;6.20;3.45;;;21.60;99.90;;;;;;5076156;28;20394;-89
2022/07/21 14:17:04;;;;;;;6.07;3.65;;;21.50;99.90;;;;;;5078458;28;20060;-88
2022/07/21 14:19:50;;;;;;;7.55;4.43;;;21.40;99.90;;;;;;5077195;28;20044;-90
2022/07/21 14:22:37;;;;;;;7.68;4.50;;;21.30;99.90;;;;;;5075969;28;20050;-89
2022/07/21 14:25:24;;;;;;;8.80;4.30;;;21.10;99.90;;;;;;5074102;28;20056;-90
2022/07/21 14:28:14;;;;;;;8.25;4.95;;;21.10;99.90;;;;;;5072642;28;20554;-89